首页
METAR-TAF:

METAR-TAF

机场 :

朱諾, 阿拉斯加州, 美国

纬度: 58-21-17N, 经度: 134-34-34W, 海拔: 6米

当前天气观测

该预报发布于27分钟前的16:13 UTC
风速12节,风向东转东南,有时为25节阵风
温度 7°C
湿度 93%
气压 1015 hPa
能見度: 16.1公里
少量云层高于1200英尺
多云层高于2600英尺
阴天层高于6000英尺
小雨

METAR: PAJN 201613Z 12012G25KT 10SM -RA FEW012 BKN026 OVC060 07/06 A2997 RMK AO2 OCNL BINOVC P0000 T00720056

时间: 07:40 (16:40 UTC)

预报

该预报发布于4小时和57分钟前的11:43 UTC
预报有效从20日的 12点(UTC)到 21日的 12点(UTC)
风速18节,风向东转东南,有时为28节阵风
能見度: 9.7公里
少量云层高于1500英尺
散云层高于2500英尺
阴天层高于4000英尺
小雨
短暂存在
从 20日的 14点(UTC)到 20日的 18点(UTC)
能見度: 6.4公里
阴天层高于2500英尺
雨, 轻雾
从 21日的 0000点(UTC)
风速25节,风向,有时为35节阵风
能見度: 8.0公里
散云层高于1500英尺
阴天层高于2500英尺
雨, 轻雾

TAF: PAJN 201143Z 2012/2112 11018G28KT 6SM -RA FEW015 SCT025 OVC040 WS020/19035KT TEMPO 2014/2018 4SM RA BR OVC025 FM210000 10025G35KT 5SM RA BR SCT015 OVC025 WS020/16035KT

超过4000个机场的气象观测和天气预报(METAR&TAF报告)。

可查询的气象台以黄色和红色小点在地图上表示。

将鼠标移到小点上方,可查看气象台名称。

然后点击查看天气观测和预报。

如需切换地图:点击带黑十字的绿色按钮放大地图;点击带横线的绿色按钮缩小地图;或者点击绿色箭头查看邻近地区的地图。


METAR-TAF: